Eco Sailor — SW6634 — position and weather

sailwx.info

Track history (hours):
 
Tides and Currents Weather Stations Pressure Air Temp Water Temp Dewpoint Dewpoint Depression Visibility Wind Speed Wind Dir Waves Ship Positions

Eco Sailor

Last reported at 2017-Nov-18 13:38 UTC. Time now 2017-Nov-18 15:31 UTC.
Position N 37°57' E 023°36'.

Length 42 m; draft 3.1 m.

Type: Tanker. MMSI: 237240400.

Date/timePositionNaut miles runAvg speedWind from/ knotsBaromVisibWave heightAir tempDewpointWater temp
2017-Nov-18 13:38N 37°57' E 023°36'1 6.8
2017-Nov-18 13:30N 37°57' E 023°35'1 0.4
2017-Nov-18 10:18N 37°57' E 023°33'0 0.0
2017-Nov-18 09:06N 37°57' E 023°33'0 0.0
2017-Nov-18 07:49N 37°57' E 023°33'0 0.0
2017-Nov-18 07:21N 37°57' E 023°33'0 0.3
2017-Nov-18 07:01N 37°57' E 023°33'0 0.2
2017-Nov-18 06:30N 37°57' E 023°33'2 4.4
2017-Nov-18 06:00N 37°57' E 023°36'0 0.0
2017-Nov-17 14:22N 37°57' E 023°36'1 1.0
2017-Nov-17 13:18N 37°57' E 023°35'0 0.0
2017-Nov-17 12:41N 37°57' E 023°35'0 0.0
2017-Nov-17 12:27N 37°57' E 023°35'0 0.0
2017-Nov-17 12:00N 37°57' E 023°35'2 3.3
2017-Nov-17 11:30N 37°58' E 023°33'4 7.0
2017-Nov-17 11:00N 38°01' E 023°32'1 1.4
2017-Nov-17 10:30N 38°02' E 023°31'0 0.0
2017-Nov-17 10:00N 38°01' E 023°31'0 0.1
2017-Nov-17 09:30N 38°02' E 023°31'0 0.1
2017-Nov-17 09:00N 38°01' E 023°31'0 0.0
2017-Nov-17 08:29N 38°02' E 023°31'0 0.1
2017-Nov-17 08:01N 38°01' E 023°31'0 0.0
2017-Nov-17 07:30N 38°01' E 023°31'2 3.5
2017-Nov-17 07:00N 37°60' E 023°32'3 6.6
2017-Nov-17 06:30N 37°57' E 023°34'2 0.1
2017-Nov-16 15:26N 37°57' E 023°37'0 0.3
2017-Nov-16 15:00N 37°57' E 023°37'0 0.0
2017-Nov-16 14:30N 37°57' E 023°37'0 0.0
2017-Nov-16 14:00N 37°57' E 023°37'0 0.0
2017-Nov-16 13:30N 37°57' E 023°37'0 0.0
2017-Nov-16 13:00N 37°57' E 023°37'0 0.0
2017-Nov-16 12:30N 37°57' E 023°37'0 0.7
2017-Nov-16 12:00N 37°57' E 023°37'2 5.0
2017-Nov-16 11:30N 37°55' E 023°34'3 5.5
2017-Nov-16 11:00N 37°53' E 023°32'0 0.9
2017-Nov-16 10:30N 37°53' E 023°31'0 0.1
2017-Nov-16 10:00N 37°53' E 023°31'0 0.1
2017-Nov-16 09:30N 37°53' E 023°31'0 0.3
2017-Nov-16 09:00N 37°53' E 023°31'0 0.2
2017-Nov-16 08:30N 37°53' E 023°31'0 0.1
2017-Nov-16 08:00N 37°53' E 023°31'0 0.0
2017-Nov-16 07:30N 37°53' E 023°31'0 0.3
2017-Nov-16 07:00N 37°53' E 023°31'4 7.4
2017-Nov-16 06:30N 37°55' E 023°35'2 4.9
2017-Nov-16 06:00N 37°57' E 023°37'0 0.0
2017-Nov-15 14:30N 37°57' E 023°37'0 0.0
2017-Nov-15 14:01N 37°57' E 023°37'0 0.0
2017-Nov-15 13:31N 37°57' E 023°37'2 3.7
2017-Nov-15 13:00N 37°57' E 023°35'1 2.1
2017-Nov-15 12:30N 37°58' E 023°33'0 0.0
2017-Nov-15 12:00N 37°58' E 023°33'0 0.0
2017-Nov-15 11:30N 37°58' E 023°33'0 0.0
2017-Nov-15 11:01N 37°58' E 023°34'0 0.0
2017-Nov-15 10:30N 37°58' E 023°34'0 0.0
2017-Nov-15 10:00N 37°58' E 023°34'0 0.0
2017-Nov-15 09:31N 37°58' E 023°34'0 0.0
2017-Nov-15 09:00N 37°58' E 023°33'0 0.0
2017-Nov-15 08:31N 37°58' E 023°33'0 0.0
2017-Nov-15 08:00N 37°58' E 023°34'0 0.0
2017-Nov-15 07:30N 37°58' E 023°34'0 0.0
2017-Nov-15 07:00N 37°58' E 023°33'0 0.0
2017-Nov-15 06:30N 37°58' E 023°33'1 2.7
2017-Nov-15 06:00N 37°57' E 023°35'2 3.2
2017-Nov-15 05:30N 37°57' E 023°37'0 0.0
2017-Nov-15 05:00N 37°57' E 023°37'0 0.0
2017-Nov-14 15:05N 37°57' E 023°37'0 0.1
2017-Nov-14 15:00N 37°57' E 023°37'0 0.0
2017-Nov-14 13:52N 37°57' E 023°37'0 0.0
2017-Nov-14 13:30N 37°57' E 023°37'0 0.0
2017-Nov-14 13:00N 37°57' E 023°37'0 0.0
2017-Nov-14 12:30N 37°57' E 023°37'0 0.0
2017-Nov-14 11:01N 37°57' E 023°37'0 0.0
2017-Nov-14 11:00N 37°57' E 023°37'2 3.4
2017-Nov-14 10:30N 37°57' E 023°35'3 5.9
2017-Nov-14 10:00N 37°60' E 023°33'2 3.3
2017-Nov-14 09:29N 38°01' E 023°32'0 0.1
2017-Nov-14 09:00N 38°01' E 023°32'0 0.0
2017-Nov-14 08:30N 38°01' E 023°32'0 0.0
2017-Nov-14 07:56N 38°01' E 023°32'0 0.0
2017-Nov-14 07:30N 38°01' E 023°32'2 4.7
2017-Nov-14 07:00N 37°59' E 023°33'3 6.2
2017-Nov-14 06:30N 37°57' E 023°36'1 1.8
2017-Nov-14 06:00N 37°57' E 023°37'0 0.0
2017-Nov-12 10:26N 37°57' E 023°37'2 4.8
2017-Nov-12 10:00N 37°57' E 023°34'3 6.0
2017-Nov-12 09:30N 37°60' E 023°33'2 3.7
2017-Nov-12 09:00N 38°02' E 023°32'0 0.0
2017-Nov-12 08:29N 38°02' E 023°32'0 0.0
2017-Nov-12 08:00N 38°02' E 023°32'0 0.0
2017-Nov-12 07:30N 38°02' E 023°32'2 3.0
2017-Nov-12 07:00N 38°00' E 023°32'3 7.1
2017-Nov-12 06:30N 37°57' E 023°35'2 0.0
2017-Nov-10 14:59N 37°57' E 023°37'3 6.3
2017-Nov-10 14:30N 37°57' E 023°33'0 0.0
2017-Nov-10 14:00N 37°57' E 023°33'0 0.0
2017-Nov-10 13:30N 37°57' E 023°33'0 0.0
2017-Nov-10 13:00N 37°57' E 023°33'0 0.0
2017-Nov-10 12:30N 37°57' E 023°33'0 0.0
2017-Nov-10 12:00N 37°57' E 023°33'0 0.0
2017-Nov-10 11:30N 37°57' E 023°33'0 0.0
2017-Nov-10 11:00N 37°57' E 023°33'0 0.0
2017-Nov-10 10:30N 37°57' E 023°33'0 0.0
2017-Nov-10 10:00N 37°57' E 023°33'0 0.0
2017-Nov-10 09:30N 37°57' E 023°33'0 0.0
2017-Nov-10 09:00N 37°57' E 023°33'0 0.0
2017-Nov-10 08:30N 37°57' E 023°33'0 0.0
2017-Nov-10 08:00N 37°57' E 023°33'0 0.0
2017-Nov-10 07:30N 37°57' E 023°33'0 0.0
2017-Nov-10 07:00N 37°57' E 023°33'2 4.8
2017-Nov-10 06:30N 37°57' E 023°36'1 0.0
2017-Nov-09 13:44N 37°57' E 023°37'1 6.3
2017-Nov-09 13:31N 37°57' E 023°35'2 3.3
2017-Nov-09 13:01N 37°57' E 023°33'0 0.0
2017-Nov-09 12:31N 37°57' E 023°33'0 0.0
2017-Nov-09 12:00N 37°57' E 023°33'0 0.0
2017-Nov-09 11:31N 37°57' E 023°33'0 0.0
2017-Nov-09 11:01N 37°57' E 023°33'0 0.0
2017-Nov-09 10:31N 37°57' E 023°33'0 0.0
2017-Nov-09 10:01N 37°57' E 023°33'0 0.5
2017-Nov-09 09:31N 37°57' E 023°33'2 4.6
2017-Nov-09 09:01N 37°58' E 023°36'0 0.0
2017-Nov-09 08:30N 37°58' E 023°36'0 0.0
2017-Nov-09 08:01N 37°58' E 023°36'0 0.0
2017-Nov-09 07:30N 37°58' E 023°36'1 1.9
2017-Nov-09 07:01N 37°57' E 023°37'0 0.2
2017-Nov-09 06:30N 37°57' E 023°37'  
Track history (hours):
 
Tides and Currents Weather Stations Pressure Air Temp Water Temp Dewpoint Dewpoint Depression Visibility Wind Speed Wind Dir Waves Ship Positions

Eco Sailor

Last reported at 2017-Nov-18 13:38 UTC. Time now 2017-Nov-18 15:31 UTC.
Position N 37°57' E 023°36'.

Length 42 m; draft 3.1 m.

Type: Tanker. MMSI: 237240400.

Date/timePositionNaut miles runAvg speedWind from/ knotsBaromVisibWave heightAir tempDewpointWater temp
2017-Nov-18 13:38N 37°57' E 023°36'1 6.8
2017-Nov-18 13:30N 37°57' E 023°35'1 0.4
2017-Nov-18 10:18N 37°57' E 023°33'0 0.0
2017-Nov-18 09:06N 37°57' E 023°33'0 0.0
2017-Nov-18 07:49N 37°57' E 023°33'0 0.0
2017-Nov-18 07:21N 37°57' E 023°33'0 0.3
2017-Nov-18 07:01N 37°57' E 023°33'0 0.2
2017-Nov-18 06:30N 37°57' E 023°33'2 4.4
2017-Nov-18 06:00N 37°57' E 023°36'0 0.0
2017-Nov-17 14:22N 37°57' E 023°36'1 1.0
2017-Nov-17 13:18N 37°57' E 023°35'0 0.0
2017-Nov-17 12:41N 37°57' E 023°35'0 0.0
2017-Nov-17 12:27N 37°57' E 023°35'0 0.0
2017-Nov-17 12:00N 37°57' E 023°35'2 3.3
2017-Nov-17 11:30N 37°58' E 023°33'4 7.0
2017-Nov-17 11:00N 38°01' E 023°32'1 1.4
2017-Nov-17 10:30N 38°02' E 023°31'0 0.0
2017-Nov-17 10:00N 38°01' E 023°31'0 0.1
2017-Nov-17 09:30N 38°02' E 023°31'0 0.1
2017-Nov-17 09:00N 38°01' E 023°31'0 0.0
2017-Nov-17 08:29N 38°02' E 023°31'0 0.1
2017-Nov-17 08:01N 38°01' E 023°31'0 0.0
2017-Nov-17 07:30N 38°01' E 023°31'2 3.5
2017-Nov-17 07:00N 37°60' E 023°32'3 6.6
2017-Nov-17 06:30N 37°57' E 023°34'2 0.1
2017-Nov-16 15:26N 37°57' E 023°37'0 0.3
2017-Nov-16 15:00N 37°57' E 023°37'0 0.0
2017-Nov-16 14:30N 37°57' E 023°37'0 0.0
2017-Nov-16 14:00N 37°57' E 023°37'0 0.0
2017-Nov-16 13:30N 37°57' E 023°37'0 0.0
2017-Nov-16 13:00N 37°57' E 023°37'0 0.0
2017-Nov-16 12:30N 37°57' E 023°37'0 0.7
2017-Nov-16 12:00N 37°57' E 023°37'2 5.0
2017-Nov-16 11:30N 37°55' E 023°34'3 5.5
2017-Nov-16 11:00N 37°53' E 023°32'0 0.9
2017-Nov-16 10:30N 37°53' E 023°31'0 0.1
2017-Nov-16 10:00N 37°53' E 023°31'0 0.1
2017-Nov-16 09:30N 37°53' E 023°31'0 0.3
2017-Nov-16 09:00N 37°53' E 023°31'0 0.2
2017-Nov-16 08:30N 37°53' E 023°31'0 0.1
2017-Nov-16 08:00N 37°53' E 023°31'0 0.0
2017-Nov-16 07:30N 37°53' E 023°31'0 0.3
2017-Nov-16 07:00N 37°53' E 023°31'4 7.4
2017-Nov-16 06:30N 37°55' E 023°35'2 4.9
2017-Nov-16 06:00N 37°57' E 023°37'0 0.0
2017-Nov-15 14:30N 37°57' E 023°37'0 0.0
2017-Nov-15 14:01N 37°57' E 023°37'0 0.0
2017-Nov-15 13:31N 37°57' E 023°37'2 3.7
2017-Nov-15 13:00N 37°57' E 023°35'1 2.1
2017-Nov-15 12:30N 37°58' E 023°33'0 0.0
2017-Nov-15 12:00N 37°58' E 023°33'0 0.0
2017-Nov-15 11:30N 37°58' E 023°33'0 0.0
2017-Nov-15 11:01N 37°58' E 023°34'0 0.0
2017-Nov-15 10:30N 37°58' E 023°34'0 0.0
2017-Nov-15 10:00N 37°58' E 023°34'0 0.0
2017-Nov-15 09:31N 37°58' E 023°34'0 0.0
2017-Nov-15 09:00N 37°58' E 023°33'0 0.0
2017-Nov-15 08:31N 37°58' E 023°33'0 0.0
2017-Nov-15 08:00N 37°58' E 023°34'0 0.0
2017-Nov-15 07:30N 37°58' E 023°34'0 0.0
2017-Nov-15 07:00N 37°58' E 023°33'0 0.0
2017-Nov-15 06:30N 37°58' E 023°33'1 2.7
2017-Nov-15 06:00N 37°57' E 023°35'2 3.2
2017-Nov-15 05:30N 37°57' E 023°37'0 0.0
2017-Nov-15 05:00N 37°57' E 023°37'0 0.0
2017-Nov-14 15:05N 37°57' E 023°37'0 0.1
2017-Nov-14 15:00N 37°57' E 023°37'0 0.0
2017-Nov-14 13:52N 37°57' E 023°37'0 0.0
2017-Nov-14 13:30N 37°57' E 023°37'0 0.0
2017-Nov-14 13:00N 37°57' E 023°37'0 0.0
2017-Nov-14 12:30N 37°57' E 023°37'0 0.0
2017-Nov-14 11:01N 37°57' E 023°37'0 0.0
2017-Nov-14 11:00N 37°57' E 023°37'2 3.4
2017-Nov-14 10:30N 37°57' E 023°35'3 5.9
2017-Nov-14 10:00N 37°60' E 023°33'2 3.3
2017-Nov-14 09:29N 38°01' E 023°32'0 0.1
2017-Nov-14 09:00N 38°01' E 023°32'0 0.0
2017-Nov-14 08:30N 38°01' E 023°32'0 0.0
2017-Nov-14 07:56N 38°01' E 023°32'0 0.0
2017-Nov-14 07:30N 38°01' E 023°32'2 4.7
2017-Nov-14 07:00N 37°59' E 023°33'3 6.2
2017-Nov-14 06:30N 37°57' E 023°36'1 1.8
2017-Nov-14 06:00N 37°57' E 023°37'0 0.0
2017-Nov-12 10:26N 37°57' E 023°37'2 4.8
2017-Nov-12 10:00N 37°57' E 023°34'3 6.0
2017-Nov-12 09:30N 37°60' E 023°33'2 3.7
2017-Nov-12 09:00N 38°02' E 023°32'0 0.0
2017-Nov-12 08:29N 38°02' E 023°32'0 0.0
2017-Nov-12 08:00N 38°02' E 023°32'0 0.0
2017-Nov-12 07:30N 38°02' E 023°32'2 3.0
2017-Nov-12 07:00N 38°00' E 023°32'3 7.1
2017-Nov-12 06:30N 37°57' E 023°35'2 0.0
2017-Nov-10 14:59N 37°57' E 023°37'3 6.3
2017-Nov-10 14:30N 37°57' E 023°33'0 0.0
2017-Nov-10 14:00N 37°57' E 023°33'0 0.0
2017-Nov-10 13:30N 37°57' E 023°33'0 0.0
2017-Nov-10 13:00N 37°57' E 023°33'0 0.0
2017-Nov-10 12:30N 37°57' E 023°33'0 0.0
2017-Nov-10 12:00N 37°57' E 023°33'0 0.0
2017-Nov-10 11:30N 37°57' E 023°33'0 0.0
2017-Nov-10 11:00N 37°57' E 023°33'0 0.0
2017-Nov-10 10:30N 37°57' E 023°33'0 0.0
2017-Nov-10 10:00N 37°57' E 023°33'0 0.0
2017-Nov-10 09:30N 37°57' E 023°33'0 0.0
2017-Nov-10 09:00N 37°57' E 023°33'0 0.0
2017-Nov-10 08:30N 37°57' E 023°33'0 0.0
2017-Nov-10 08:00N 37°57' E 023°33'0 0.0
2017-Nov-10 07:30N 37°57' E 023°33'0 0.0
2017-Nov-10 07:00N 37°57' E 023°33'2 4.8
2017-Nov-10 06:30N 37°57' E 023°36'1 0.0
2017-Nov-09 13:44N 37°57' E 023°37'1 6.3
2017-Nov-09 13:31N 37°57' E 023°35'2 3.3
2017-Nov-09 13:01N 37°57' E 023°33'0 0.0
2017-Nov-09 12:31N 37°57' E 023°33'0 0.0
2017-Nov-09 12:00N 37°57' E 023°33'0 0.0
2017-Nov-09 11:31N 37°57' E 023°33'0 0.0
2017-Nov-09 11:01N 37°57' E 023°33'0 0.0
2017-Nov-09 10:31N 37°57' E 023°33'0 0.0
2017-Nov-09 10:01N 37°57' E 023°33'0 0.5
2017-Nov-09 09:31N 37°57' E 023°33'2 4.6
2017-Nov-09 09:01N 37°58' E 023°36'0 0.0
2017-Nov-09 08:30N 37°58' E 023°36'0 0.0
2017-Nov-09 08:01N 37°58' E 023°36'0 0.0
2017-Nov-09 07:30N 37°58' E 023°36'1 1.9
2017-Nov-09 07:01N 37°57' E 023°37'0 0.2
2017-Nov-09 06:30N 37°57' E 023°37'  

Dump ship's entire track history